Time;durP1;ratioP1;P1;durP2;ratioP2;P2;SDS_P1;SDS_P2;PMS_P1;PMS_P2;Temp;Humidity;BMP_temperature;BMP_pressure;BME280_temperature;BME280_humidity;BME280_pressure;Samples;Min_cycle;Max_cycle;Signal;HPM_P1;HPM_P2
2023/03/22 00:00:42;;;;;;;18.52;8.00;;;;;;;;;;5025910;28;20364;-66
2023/03/22 00:03:09;;;;;;;17.05;7.18;;;10.20;99.90;;;;;;5030107;28;20044;-66
2023/03/22 00:05:35;;;;;;;13.25;8.18;;;;;;;;;;5028192;28;20544;-66
2023/03/22 00:08:04;;;;;;;13.23;6.63;;;;;;;;;;5035100;28;20037;-66
2023/03/22 00:10:35;;;;;;;12.75;6.63;;;10.10;99.90;;;;;;5031394;28;20554;-66
2023/03/22 00:13:01;;;;;;;12.60;6.35;;;;;;;;;;5032552;28;20120;-66
2023/03/22 00:15:28;;;;;;;10.88;5.82;;;;;;;;;;5026941;28;20466;-66
2023/03/22 00:17:54;;;;;;;19.98;6.68;;;;;;;;;;5032974;28;20045;-67
2023/03/22 00:20:22;;;;;;;8.77;5.85;;;;;;;;;;5032763;28;20107;-67
2023/03/22 00:22:48;;;;;;;13.02;6.45;;;;;;;;;;5037075;28;20052;-66
2023/03/22 00:25:14;;;;;;;12.02;5.97;;;;;;;;;;5031113;28;20123;-66
2023/03/22 00:27:43;;;;;;;13.48;5.57;;;;;;;;;;5027745;28;20063;-67
2023/03/22 00:30:40;;;;;;;11.77;5.05;;;;;;;;;;5025925;28;20678;-66
2023/03/22 00:33:06;;;;;;;11.30;5.47;;;;;;;;;;5040780;28;20167;-66
2023/03/22 00:35:32;;;;;;;11.63;5.22;;;;;;;;;;5025345;28;20116;-66
2023/03/22 00:38:12;;;;;;;11.05;5.18;;;;;;;;;;5025261;28;20746;-66
2023/03/22 00:40:39;;;;;;;9.13;5.05;;;;;;;;;;5025192;28;20050;-66
2023/03/22 00:43:05;;;;;;;10.85;4.95;;;;;;;;;;5028591;28;20400;-66
2023/03/22 00:45:31;;;;;;;13.25;4.38;;;;;;;;;;5032579;28;20049;-66
2023/03/22 00:47:57;;;;;;;9.07;4.30;;;;;;;;;;5034139;28;20140;-66
2023/03/22 00:50:23;;;;;;;9.68;4.32;;;;;;;;;;5034106;28;20037;-67
2023/03/22 00:52:49;;;;;;;11.82;4.72;;;;;;;;;;5027327;28;20581;-66
2023/03/22 00:55:15;;;;;;;10.98;4.03;;;;;;;;;;5031821;28;20491;-66
2023/03/22 00:57:41;;;;;;;14.30;4.07;;;;;;;;;;5026234;28;20168;-66
2023/03/22 01:00:11;;;;;;;9.63;3.33;;;;;;;;;;5034187;28;20438;-66
2023/03/22 01:02:37;;;;;;;9.05;3.88;;;;;;;;;;5036440;28;20589;-66
2023/03/22 01:05:05;;;;;;;8.57;3.53;;;;;;;;;;5024416;28;20045;-66
2023/03/22 01:07:32;;;;;;;11.23;4.18;;;;;;;;;;5025955;28;20053;-67
2023/03/22 01:09:58;;;;;;;9.18;3.55;;;;;;;;;;5022855;28;20132;-66
2023/03/22 01:12:24;;;;;;;12.48;3.72;;;;;;;;;;5044114;28;20041;-66
2023/03/22 01:14:50;;;;;;;9.63;3.65;;;;;;;;;;5026892;28;20038;-66
2023/03/22 01:17:15;;;;;;;8.57;3.08;;;10.10;99.90;;;;;;5046107;28;20064;-66
2023/03/22 01:19:41;;;;;;;7.43;2.30;;;;;;;;;;5030655;28;20083;-66
2023/03/22 01:22:07;;;;;;;15.45;3.00;;;;;;;;;;5025534;28;20651;-66
2023/03/22 01:24:34;;;;;;;9.88;2.53;;;10.10;99.90;;;;;;5025839;28;20037;-66
2023/03/22 01:26:59;;;;;;;11.93;2.42;;;;;;;;;;5026085;28;20061;-66
2023/03/22 01:29:25;;;;;;;12.52;3.25;;;10.00;99.90;;;;;;5033540;28;20040;-66
2023/03/22 01:31:51;;;;;;;11.32;2.85;;;;;;;;;;5032592;28;20823;-66
2023/03/22 01:34:17;;;;;;;8.10;2.00;;;10.00;99.90;;;;;;5043338;28;20060;-66
2023/03/22 01:36:43;;;;;;;11.07;2.70;;;10.10;99.90;;;;;;5039539;28;20041;-66
2023/03/22 01:39:09;;;;;;;12.00;2.72;;;;;;;;;;5027693;28;20037;-66
2023/03/22 01:41:36;;;;;;;7.88;2.22;;;;;;;;;;5030731;28;20415;-66
2023/03/22 01:44:08;;;;;;;8.77;1.88;;;;;;;;;;5032167;28;20088;-66
2023/03/22 01:46:34;;;;;;;12.85;2.60;;;10.10;99.90;;;;;;5032325;28;20103;-66
2023/03/22 01:49:01;;;;;;;9.77;3.38;;;;;;;;;;5031737;28;20483;-66
2023/03/22 01:51:27;;;;;;;9.48;2.15;;;;;;;;;;5014276;28;20124;-66
2023/03/22 01:54:01;;;;;;;10.73;2.30;;;10.10;99.90;;;;;;5027879;28;20042;-66
2023/03/22 01:56:31;;;;;;;11.73;2.70;;;10.10;99.90;;;;;;5029030;28;20056;-66
2023/03/22 01:58:57;;;;;;;10.55;2.50;;;;;;;;;;5031045;28;20049;-66
2023/03/22 02:01:24;;;;;;;11.70;2.42;;;;;;;;;;5035535;28;20099;-66
2023/03/22 02:04:03;;;;;;;10.60;1.90;;;10.30;99.90;;;;;;5031394;28;20501;-66
2023/03/22 02:06:31;;;;;;;9.65;2.45;;;;;;;;;;5030992;28;20112;-66
2023/03/22 02:08:57;;;;;;;9.40;2.00;;;;;;;;;;5025568;28;20061;-67
2023/03/22 02:11:43;;;;;;;9.05;2.67;;;;;;;;;;5026888;28;20554;-66
2023/03/22 02:14:19;;;;;;;9.48;2.35;;;;;;;;;;5026828;28;20526;-66
2023/03/22 02:16:54;;;;;;;14.23;2.78;;;;;;;;;;5033755;28;20060;-66
2023/03/22 02:19:20;;;;;;;;;;;;;;;;;;5026545;28;20647;-67
2023/03/22 02:21:49;;;;;;;14.25;2.25;;;;;;;;;;5030330;28;19975;-66
2023/03/22 02:24:34;;;;;;;8.30;2.22;;;;;;;;;;5032771;28;20170;-66
2023/03/22 02:27:03;;;;;;;9.82;2.33;;;;;;;;;;5049218;28;20110;-66
2023/03/22 02:29:32;;;;;;;10.13;2.33;;;;;;;;;;5026633;28;20055;-66
2023/03/22 02:32:15;;;;;;;7.93;2.40;;;;;;;;;;5026797;28;20037;-66
2023/03/22 02:35:00;;;;;;;10.85;2.40;;;;;;;;;;5026637;28;20041;-66
2023/03/22 02:37:26;;;;;;;11.70;2.37;;;;;;;;;;5028826;28;20515;-66
2023/03/22 02:40:00;;;;;;;11.10;2.10;;;;;;;;;;5026446;28;20042;-66
2023/03/22 02:42:39;;;;;;;10.20;3.47;;;;;;;;;;5026056;28;20846;-66
2023/03/22 02:45:26;;;;;;;8.57;2.25;;;;;;;;;;5029093;28;20586;-66
2023/03/22 02:47:58;;;;;;;11.20;2.78;;;;;;;;;;5041355;28;20049;-66
2023/03/22 02:50:24;;;;;;;10.65;3.03;;;;;;;;;;5024232;28;20064;-66
2023/03/22 02:52:57;;;;;;;10.32;2.40;;;10.00;99.90;;;;;;5031729;28;20077;-66
2023/03/22 02:55:40;;;;;;;7.53;3.00;;;10.30;99.90;;;;;;5033692;28;20052;-66
2023/03/22 02:58:21;;;;;;;13.98;3.17;;;9.90;99.90;;;;;;5029589;28;20049;-66
2023/03/22 03:00:50;;;;;;;15.48;3.10;;;9.90;99.90;;;;;;5050136;28;20084;-66
2023/03/22 03:03:18;;;;;;;10.77;2.80;;;10.20;99.90;;;;;;5037226;28;20052;-66
2023/03/22 03:05:46;;;;;;;12.40;2.70;;;;;;;;;;5038813;28;20507;-66
2023/03/22 03:08:13;;;;;;;9.85;3.42;;;;;;;;;;5045235;28;20125;-66
2023/03/22 03:10:40;;;;;;;7.63;2.75;;;10.00;99.90;;;;;;5032168;28;20049;-66
2023/03/22 03:13:09;;;;;;;12.95;2.58;;;;;;;;;;5059535;28;20040;-66
2023/03/22 03:15:38;;;;;;;8.20;2.78;;;10.20;99.90;;;;;;5033940;28;20057;-66
2023/03/22 03:18:19;;;;;;;15.85;2.95;;;;;;;;;;5028737;28;20132;-66
2023/03/22 03:20:45;;;;;;;10.68;2.90;;;10.10;99.90;;;;;;5029801;28;20033;-66
2023/03/22 03:23:14;;;;;;;9.48;2.95;;;;;;;;;;5030439;28;20510;-66
2023/03/22 03:25:46;;;;;;;17.10;3.95;;;;;;;;;;5028086;28;20041;-66
2023/03/22 03:28:12;;;;;;;13.27;3.72;;;;;;;;;;5024350;28;20045;-66
2023/03/22 03:30:51;;;;;;;9.73;3.35;;;9.90;99.90;;;;;;5023548;28;20597;-66
2023/03/22 03:33:19;;;;;;;8.38;3.22;;;;;;;;;;5028331;28;20860;-66
2023/03/22 03:35:56;;;;;;;12.25;3.03;;;;;;;;;;5030915;28;20038;-66
2023/03/22 03:38:25;;;;;;;11.43;3.30;;;;;;;;;;5024136;28;20034;-66
2023/03/22 03:40:56;;;;;;;14.98;4.30;;;;;;;;;;5022601;28;20076;-66
2023/03/22 03:43:24;;;;;;;7.63;2.40;;;;;;;;;;5032035;28;20037;-66
2023/03/22 03:45:50;;;;;;;8.00;3.10;;;;;;;;;;5033831;28;20088;-66
2023/03/22 03:48:22;;;;;;;14.38;3.08;;;;;;;;;;5035400;28;20061;-66
2023/03/22 03:50:50;;;;;;;5.50;2.38;;;10.30;99.90;;;;;;5036701;28;20052;-66
2023/03/22 03:53:16;;;;;;;7.80;2.83;;;;;;;;;;5033144;28;20043;-66
2023/03/22 03:55:42;;;;;;;10.07;2.65;;;;;;;;;;5028306;28;20037;-66
2023/03/22 03:58:08;;;;;;;11.32;3.25;;;;;;;;;;5035930;28;20041;-66
2023/03/22 04:00:35;;;;;;;9.60;3.65;;;;;;;;;;5033249;28;20073;-66
2023/03/22 04:03:02;;;;;;;11.30;2.63;;;10.10;99.90;;;;;;5025839;28;20434;-66
2023/03/22 04:05:28;;;;;;;7.38;2.60;;;;;;;;;;5027731;28;20041;-66
2023/03/22 04:07:53;;;;;;;9.57;3.03;;;10.10;99.90;;;;;;5026530;28;20041;-66
2023/03/22 04:10:19;;;;;;;8.82;2.50;;;10.00;99.90;;;;;;5031144;28;20049;-66
2023/03/22 04:12:45;;;;;;;7.55;3.03;;;;;;;;;;5025622;28;20121;-66
2023/03/22 04:15:11;;;;;;;9.25;3.35;;;;;;;;;;5025101;28;20053;-66
2023/03/22 04:17:38;;;;;;;7.95;3.05;;;;;;;;;;5023784;28;20045;-66
2023/03/22 04:20:05;;;;;;;9.95;3.88;;;;;;;;;;5024647;28;20041;-66
2023/03/22 04:22:33;;;;;;;13.68;4.80;;;;;;;;;;5032322;28;20060;-66
2023/03/22 04:25:00;;;;;;;15.98;3.88;;;9.90;99.90;;;;;;5029548;28;20052;-66
2023/03/22 04:27:26;;;;;;;10.88;5.13;;;;;;;;;;5027355;28;20119;-66
2023/03/22 04:29:53;;;;;;;7.90;4.40;;;10.40;99.90;;;;;;5029545;28;20059;-66
2023/03/22 04:32:25;;;;;;;10.73;4.95;;;10.30;99.90;;;;;;5029922;28;20521;-66
2023/03/22 04:34:51;;;;;;;12.18;5.15;;;;;;;;;;5032417;28;20116;-66
2023/03/22 04:37:18;;;;;;;11.43;5.10;;;10.20;99.90;;;;;;5028254;28;20045;-66
2023/03/22 04:39:45;;;;;;;13.45;6.22;;;;;;;;;;5026213;28;20132;-66
2023/03/22 04:42:11;;;;;;;14.32;6.25;;;;;;;;;;5033989;28;20056;-66
2023/03/22 04:44:37;;;;;;;12.52;5.82;;;10.20;99.90;;;;;;5025582;28;20507;-66
2023/03/22 04:47:03;;;;;;;14.25;6.20;;;10.30;99.90;;;;;;5025599;28;20053;-66
2023/03/22 04:49:30;;;;;;;20.73;6.60;;;;;;;;;;5025026;28;20061;-66
2023/03/22 04:51:56;;;;;;;16.75;6.70;;;;;;;;;;5023232;28;20041;-66
2023/03/22 04:54:22;;;;;;;12.13;6.13;;;10.40;99.90;;;;;;5027042;28;20099;-66
2023/03/22 04:56:48;;;;;;;10.63;6.68;;;;;;;;;;5030113;28;20045;-66
2023/03/22 04:59:18;;;;;;;12.45;7.00;;;;;;;;;;5027091;28;20662;-66
2023/03/22 05:01:44;;;;;;;14.63;7.10;;;;;;;;;;5029899;28;20045;-66
2023/03/22 05:04:11;;;;;;;15.30;7.40;;;;;;;;;;5034050;28;20136;-66
2023/03/22 05:06:37;;;;;;;12.50;6.63;;;;;;;;;;5044678;28;20565;-66
2023/03/22 05:09:02;;;;;;;15.40;7.15;;;10.40;99.90;;;;;;5039445;28;20052;-66
2023/03/22 05:11:28;;;;;;;13.93;7.72;;;;;;;;;;5032933;28;20164;-66
2023/03/22 05:13:55;;;;;;;11.65;6.68;;;;;;;;;;5029598;28;20037;-66
2023/03/22 05:16:21;;;;;;;14.13;7.85;;;;;;;;;;5035442;28;20135;-66
2023/03/22 05:18:48;;;;;;;14.15;7.32;;;;;;;;;;5036545;28;20056;-66
2023/03/22 05:21:16;;;;;;;14.77;8.18;;;;;;;;;;5033292;28;20049;-66
2023/03/22 05:23:42;;;;;;;16.65;7.97;;;;;;;;;;5031534;28;20045;-66
2023/03/22 05:26:09;;;;;;;14.35;8.77;;;;;;;;;;5041371;28;20095;-66
2023/03/22 05:28:35;;;;;;;16.38;8.13;;;10.40;99.90;;;;;;5032810;28;20159;-66
2023/03/22 05:31:02;;;;;;;17.02;9.05;;;;;;;;;;5043230;28;20040;-66
2023/03/22 05:33:28;;;;;;;17.90;10.07;;;;;;;;;;5036071;28;20041;-66
2023/03/22 05:35:54;;;;;;;15.45;8.25;;;10.30;99.90;;;;;;5056066;28;20037;-67
2023/03/22 05:38:21;;;;;;;16.92;8.60;;;;;;;;;;5033741;28;20056;-66
2023/03/22 05:40:47;;;;;;;16.58;8.05;;;;;;;;;;5029450;28;20069;-66
2023/03/22 05:43:14;;;;;;;18.30;8.80;;;10.30;99.90;;;;;;5030708;28;20045;-66
2023/03/22 05:45:40;;;;;;;18.77;8.90;;;;;;;;;;5013426;28;20144;-66
2023/03/22 05:48:06;;;;;;;17.90;9.95;;;;;;;;;;5027174;28;20563;-66
2023/03/22 05:50:33;;;;;;;15.07;8.77;;;;;;;;;;5028422;28;20038;-66
2023/03/22 05:52:58;;;;;;;16.00;9.02;;;10.30;99.90;;;;;;5037025;28;20033;-66
2023/03/22 05:55:24;;;;;;;19.45;8.80;;;;;;;;;;5034874;28;20380;-66
2023/03/22 05:57:56;;;;;;;17.10;9.35;;;10.20;99.90;;;;;;5035519;28;20045;-66
2023/03/22 06:00:22;;;;;;;18.08;9.23;;;;;;;;;;5027186;28;20419;-67
2023/03/22 06:02:51;;;;;;;16.40;9.45;;;;;;;;;;5026942;28;20085;-66
2023/03/22 06:05:17;;;;;;;16.23;9.00;;;10.30;99.90;;;;;;5027019;28;20100;-66
2023/03/22 06:07:43;;;;;;;17.95;9.40;;;;;;;;;;5044869;28;20419;-66
2023/03/22 06:10:14;;;;;;;21.45;9.63;;;10.20;99.90;;;;;;5032523;28;20057;-66
2023/03/22 06:12:40;;;;;;;16.98;9.45;;;10.50;99.90;;;;;;5051477;28;20484;-66
2023/03/22 06:15:07;;;;;;;16.75;10.30;;;;;;;;;;5033296;28;20043;-66
2023/03/22 06:17:33;;;;;;;19.85;10.52;;;;;;;;;;5027624;28;20052;-66
2023/03/22 06:19:59;;;;;;;19.05;9.40;;;;;;;;;;5027242;28;20060;-66
2023/03/22 06:22:25;;;;;;;17.80;9.73;;;;;;;;;;5043167;28;21024;-66
2023/03/22 06:24:50;;;;;;;17.80;9.57;;;10.50;99.90;;;;;;5034341;28;20129;-66
2023/03/22 06:27:17;;;;;;;17.00;9.02;;;;;;;;;;5032262;28;20427;-66
2023/03/22 06:29:43;;;;;;;15.73;9.38;;;;;;;;;;5025242;28;20043;-66
2023/03/22 06:32:10;;;;;;;20.85;9.93;;;;;;;;;;5050884;28;20051;-66
2023/03/22 06:34:36;;;;;;;15.40;9.30;;;;;;;;;;5029143;28;20418;-66
2023/03/22 06:37:02;;;;;;;16.20;9.88;;;;;;;;;;5029976;28;20045;-66
2023/03/22 06:39:28;;;;;;;16.08;8.18;;;;;;;;;;5035206;28;20128;-66
2023/03/22 06:41:54;;;;;;;20.05;8.80;;;;;;;;;;5030022;28;20135;-66
2023/03/22 06:44:21;;;;;;;26.23;9.05;;;;;;;;;;5029871;28;20048;-67
2023/03/22 06:46:47;;;;;;;15.65;8.88;;;;;;;;;;5033648;28;20794;-66
2023/03/22 06:49:13;;;;;;;17.17;9.23;;;;;;;;;;5034370;28;20116;-66
2023/03/22 06:51:39;;;;;;;20.60;9.27;;;;;;;;;;5027294;28;20562;-66
2023/03/22 06:54:05;;;;;;;17.85;8.63;;;;;;;;;;5028130;28;20049;-66
2023/03/22 06:56:31;;;;;;;16.90;8.65;;;;;;;;;;5026449;28;20079;-66
2023/03/22 06:58:57;;;;;;;15.05;8.18;;;11.10;99.90;;;;;;5028028;28;20047;-66
2023/03/22 07:01:23;;;;;;;16.83;8.10;;;;;;;;;;5043137;28;20080;-66
2023/03/22 07:03:49;;;;;;;17.35;8.75;;;;;;;;;;5028232;28;20080;-66
2023/03/22 07:06:16;;;;;;;18.58;8.35;;;;;;;;;;5030305;28;20053;-66
2023/03/22 07:08:41;;;;;;;14.05;7.20;;;11.20;99.90;;;;;;5034458;28;20392;-66
2023/03/22 07:11:07;;;;;;;15.38;7.85;;;;;;;;;;5025235;28;20037;-66
2023/03/22 07:13:33;;;;;;;13.27;7.72;;;;;;;;;;5025724;28;20155;-66
2023/03/22 07:16:00;;;;;;;13.30;7.47;;;;;;;;;;5027025;28;20179;-66
2023/03/22 07:18:27;;;;;;;14.50;7.75;;;11.10;99.90;;;;;;5027404;28;20120;-66
2023/03/22 07:20:53;;;;;;;13.30;7.57;;;;;;;;;;5027862;28;20041;-66
2023/03/22 07:23:19;;;;;;;11.57;7.38;;;;;;;;;;5037836;28;20115;-66
2023/03/22 07:25:46;;;;;;;12.13;6.68;;;11.20;99.90;;;;;;5029001;28;20041;-67
2023/03/22 07:28:12;;;;;;;15.73;7.20;;;11.30;99.90;;;;;;5030093;28;20544;-67
2023/03/22 07:30:38;;;;;;;14.85;7.00;;;;;;;;;;5025633;28;20045;-66
2023/03/22 07:33:05;;;;;;;9.48;6.22;;;;;;;;;;5026697;28;20118;-66
2023/03/22 07:35:31;;;;;;;14.73;6.97;;;;;;;;;;5024939;28;21016;-66
2023/03/22 07:37:58;;;;;;;11.45;6.70;;;;;;;;;;5032260;28;20049;-66
2023/03/22 07:40:24;;;;;;;12.43;6.63;;;11.20;99.90;;;;;;5026431;28;20419;-66
2023/03/22 07:42:50;;;;;;;15.90;6.97;;;;;;;;;;5026412;28;20399;-66
2023/03/22 07:45:17;;;;;;;12.80;6.95;;;;;;;;;;5026458;28;20626;-66
2023/03/22 07:47:43;;;;;;;17.50;6.00;;;;;;;;;;5024437;28;20168;-66
2023/03/22 07:50:13;;;;;;;15.38;6.93;;;;;;;;;;5024871;28;20053;-66
2023/03/22 07:52:39;;;;;;;10.88;6.10;;;;;;;;;;5031466;28;20124;-66
2023/03/22 07:55:06;;;;;;;13.40;6.10;;;11.30;99.90;;;;;;5028685;28;20122;-66
2023/03/22 07:57:32;;;;;;;13.57;6.10;;;;;;;;;;5048588;28;20049;-66
2023/03/22 07:59:58;;;;;;;10.85;5.88;;;;;;;;;;5032263;28;20056;-67
2023/03/22 08:02:24;;;;;;;14.02;6.40;;;;;;;;;;5033716;28;20079;-66
2023/03/22 08:04:51;;;;;;;15.35;5.43;;;11.20;99.90;;;;;;5034032;28;20044;-66
2023/03/22 08:07:20;;;;;;;12.20;5.50;;;11.10;99.90;;;;;;5026654;28;20049;-66
2023/03/22 08:09:46;;;;;;;12.55;6.15;;;;;;;;;;5025575;28;20094;-66
2023/03/22 08:12:12;;;;;;;11.73;5.50;;;;;;;;;;5027343;28;20045;-66
2023/03/22 08:14:37;;;;;;;18.90;6.47;;;11.20;99.90;;;;;;5027206;28;20044;-66
2023/03/22 08:17:04;;;;;;;11.30;5.53;;;;;;;;;;5032164;28;20362;-66
2023/03/22 08:19:31;;;;;;;13.73;5.72;;;;;;;;;;5024346;28;20116;-66
2023/03/22 08:21:58;;;;;;;15.07;5.95;;;;;;;;;;5027613;28;20120;-67
2023/03/22 08:24:24;;;;;;;12.35;4.72;;;;;;;;;;5024754;28;20042;-66
2023/03/22 08:26:50;;;;;;;11.20;5.20;;;;;;;;;;5025030;28;20411;-67
2023/03/22 08:29:17;;;;;;;10.82;5.40;;;;;;;;;;5023839;28;20048;-66
2023/03/22 08:31:43;;;;;;;15.85;6.25;;;;;;;;;;5024450;28;20484;-66
2023/03/22 08:34:09;;;;;;;11.20;5.80;;;;;;;;;;5025893;28;20118;-66
2023/03/22 08:36:36;;;;;;;19.42;5.50;;;;;;;;;;5030328;28;20833;-66
2023/03/22 08:39:02;;;;;;;16.42;5.90;;;;;;;;;;5029739;28;20049;-66
2023/03/22 08:41:28;;;;;;;13.05;5.55;;;12.10;99.90;;;;;;5032692;28;20408;-66
2023/03/22 08:43:53;;;;;;;14.43;5.10;;;12.20;99.90;;;;;;5050057;28;20036;-66
2023/03/22 08:46:19;;;;;;;12.02;5.30;;;12.20;99.90;;;;;;5056230;28;20816;-66
2023/03/22 08:48:49;;;;;;;10.27;4.35;;;;;;;;;;5030379;28;20507;-66
2023/03/22 08:51:20;;;;;;;11.32;4.15;;;;;;;;;;5026858;28;20605;-66
2023/03/22 08:53:46;;;;;;;10.90;4.18;;;11.90;99.90;;;;;;5027727;28;20558;-66
2023/03/22 08:56:15;;;;;;;9.90;5.57;;;;;;;;;;5032652;28;20056;-66
2023/03/22 08:58:45;;;;;;;12.32;5.00;;;12.00;99.90;;;;;;5023607;28;20140;-66
2023/03/22 09:01:15;;;;;;;11.63;4.40;;;12.00;99.90;;;;;;5024380;28;20053;-66
2023/03/22 09:03:41;;;;;;;11.90;4.63;;;11.80;99.90;;;;;;5027159;28;20052;-66
2023/03/22 09:06:09;;;;;;;13.70;4.65;;;12.10;99.90;;;;;;5050714;28;20486;-66
2023/03/22 09:08:35;;;;;;;9.57;4.20;;;;;;;;;;5024212;28;20041;-66
2023/03/22 09:11:01;;;;;;;11.30;4.53;;;;;;;;;;5025453;28;20037;-67
2023/03/22 09:13:29;;;;;;;14.98;4.65;;;;;;;;;;5030861;28;20052;-66
2023/03/22 09:15:55;;;;;;;13.30;4.18;;;;;;;;;;5024206;28;20068;-66
2023/03/22 09:18:23;;;;;;;8.63;3.78;;;;;;;;;;5028631;28;20574;-66
2023/03/22 09:20:49;;;;;;;9.05;4.10;;;;;;;;;;5022238;28;20045;-66
2023/03/22 09:23:15;;;;;;;16.00;4.00;;;;;;;;;;5027041;28;20072;-67
2023/03/22 09:25:45;;;;;;;12.80;4.15;;;12.20;99.90;;;;;;5026191;28;20547;-66
2023/03/22 09:28:11;;;;;;;14.30;4.35;;;;;;;;;;5026431;28;20053;-66
2023/03/22 09:30:37;;;;;;;9.73;3.65;;;;;;;;;;5027402;28;20099;-66
2023/03/22 09:33:03;;;;;;;11.82;4.03;;;;;;;;;;5032188;28;20457;-66
2023/03/22 09:35:29;;;;;;;12.18;4.15;;;11.80;99.90;;;;;;5027146;28;20049;-66
2023/03/22 09:37:57;;;;;;;10.90;4.57;;;12.00;99.90;;;;;;5029139;28;20041;-66
2023/03/22 09:40:27;;;;;;;10.32;3.70;;;11.90;99.90;;;;;;5027367;28;20500;-66
2023/03/22 09:42:56;;;;;;;8.18;3.60;;;11.80;99.90;;;;;;5031914;28;20037;-66
2023/03/22 09:45:33;;;;;;;7.53;3.42;;;11.80;99.90;;;;;;5031019;28;20058;-66
2023/03/22 09:48:02;;;;;;;8.45;3.70;;;11.60;99.90;;;;;;5025748;28;20388;-66
2023/03/22 09:50:31;;;;;;;13.93;5.10;;;11.60;99.90;;;;;;5027546;28;20615;-66
2023/03/22 09:52:58;;;;;;;10.65;3.72;;;11.40;99.90;;;;;;5032463;28;20045;-67
2023/03/22 09:55:37;;;;;;;9.77;4.20;;;;;;;;;;5033888;28;20041;-66
2023/03/22 09:58:25;;;;;;;10.43;4.38;;;11.40;99.90;;;;;;5027626;28;20037;-66
2023/03/22 10:01:02;;;;;;;12.55;3.80;;;11.50;99.90;;;;;;5032847;28;20037;-66
2023/03/22 10:03:55;;;;;;;9.98;4.25;;;11.20;99.90;;;;;;5034818;28;20042;-66
2023/03/22 10:06:22;;;;;;;6.95;3.60;;;;;;;;;;5043757;28;20048;-66
2023/03/22 10:09:09;;;;;;;14.95;4.88;;;;;;;;;;5039628;28;20044;-66
2023/03/22 10:11:44;;;;;;;11.30;4.38;;;;;;;;;;5038237;28;20042;-66
2023/03/22 10:14:23;;;;;;;11.90;4.15;;;;;;;;;;5030804;28;20117;-66
2023/03/22 10:16:51;;;;;;;8.05;4.05;;;11.20;99.90;;;;;;5033419;28;20049;-66
2023/03/22 10:19:37;;;;;;;12.55;4.13;;;;;;;;;;5031753;28;20209;-67
2023/03/22 10:22:04;;;;;;;14.73;4.72;;;;;;;;;;5045789;28;20048;-66
2023/03/22 10:24:35;;;;;;;15.65;4.07;;;;;;;;;;5029065;28;20506;-66
2023/03/22 10:27:01;;;;;;;9.55;4.78;;;11.30;99.90;;;;;;5028428;28;20111;-66
2023/03/22 10:29:40;;;;;;;9.15;3.92;;;;;;;;;;5034912;28;20099;-66
2023/03/22 10:32:13;;;;;;;12.35;4.47;;;;;;;;;;5028158;28;20119;-66
2023/03/22 10:34:39;;;;;;;12.13;4.90;;;;;;;;;;5026685;28;20407;-66
2023/03/22 10:37:09;;;;;;;13.48;5.05;;;11.00;99.90;;;;;;5029057;28;20049;-66
2023/03/22 10:39:37;;;;;;;10.88;4.40;;;11.10;99.90;;;;;;5031414;28;20518;-66
2023/03/22 10:42:05;;;;;;;10.18;4.03;;;;;;;;;;5030303;28;20112;-66
2023/03/22 10:44:35;;;;;;;10.05;4.22;;;;;;;;;;5034394;28;20052;-67
2023/03/22 10:47:06;;;;;;;8.90;4.32;;;11.00;99.90;;;;;;5038176;28;20616;-66
2023/03/22 10:49:51;;;;;;;16.05;5.05;;;11.00;99.90;;;;;;5027869;28;20033;-67
2023/03/22 10:52:44;;;;;;;9.60;4.57;;;;;;;;;;5030735;28;20053;-67
2023/03/22 10:55:12;;;;;;;11.38;4.65;;;11.00;99.90;;;;;;5043376;28;20060;-66
2023/03/22 10:57:39;;;;;;;10.60;4.75;;;;;;;;;;5026509;28;20116;-66
2023/03/22 11:00:12;;;;;;;12.15;4.97;;;11.00;99.90;;;;;;5024495;28;20095;-66
2023/03/22 11:02:52;;;;;;;11.77;5.03;;;11.10;99.90;;;;;;5026522;28;20053;-67
2023/03/22 11:05:23;;;;;;;12.55;4.45;;;;;;;;;;5039988;28;20045;-66
2023/03/22 11:07:50;;;;;;;13.57;5.55;;;;;;;;;;5035808;28;20595;-66
2023/03/22 11:10:20;;;;;;;7.85;4.10;;;10.90;99.90;;;;;;5033223;28;20045;-66
2023/03/22 11:13:09;;;;;;;8.70;4.15;;;11.10;99.90;;;;;;5028603;28;20076;-66
2023/03/22 11:15:38;;;;;;;7.50;4.15;;;10.90;99.90;;;;;;5025423;28;20041;-66
2023/03/22 11:18:13;;;;;;;9.70;4.93;;;11.10;99.90;;;;;;5031034;28;20048;-66
2023/03/22 11:20:39;;;;;;;;;;;;;;;;;;5042083;28;20041;-66
2023/03/22 11:23:05;;;;;;;10.35;4.75;;;;;;;;;;5027091;28;20738;-67
2023/03/22 11:25:35;;;;;;;9.27;5.03;;;;;;;;;;5031625;28;20033;-66
2023/03/22 11:28:04;;;;;;;14.93;4.50;;;;;;;;;;5024222;28;20061;-66
2023/03/22 11:30:32;;;;;;;12.10;4.68;;;10.90;99.90;;;;;;5024226;28;20053;-66
2023/03/22 11:33:08;;;;;;;6.97;4.13;;;;;;;;;;5038530;28;20183;-66
2023/03/22 11:35:36;;;;;;;6.38;4.13;;;11.10;99.90;;;;;;5044673;28;20125;-67
2023/03/22 11:38:02;;;;;;;9.02;4.13;;;11.00;99.90;;;;;;5028522;28;20072;-67
2023/03/22 11:40:31;;;;;;;8.82;3.88;;;11.20;99.90;;;;;;5035111;28;20443;-66
2023/03/22 11:43:20;;;;;;;10.73;4.60;;;;;;;;;;5028817;28;20072;-66
2023/03/22 11:45:49;;;;;;;10.07;3.55;;;11.00;99.90;;;;;;5021300;28;20060;-67
2023/03/22 11:48:19;;;;;;;9.30;4.25;;;11.20;99.90;;;;;;5028090;28;20085;-66
2023/03/22 11:50:46;;;;;;;8.00;3.55;;;;;;;;;;5028541;28;20033;-66
2023/03/22 11:53:18;;;;;;;9.65;3.78;;;11.00;99.90;;;;;;5028413;28;20056;-66
2023/03/22 11:55:46;;;;;;;7.82;3.90;;;11.30;99.90;;;;;;5029176;28;20059;-67
2023/03/22 11:58:21;;;;;;;11.88;3.47;;;;;;;;;;5027966;28;20060;-67
2023/03/22 12:00:51;;;;;;;7.97;4.07;;;;;;;;;;5047260;28;20045;-66
2023/03/22 12:03:22;;;;;;;8.07;4.70;;;11.20;99.90;;;;;;5030751;28;20116;-66
2023/03/22 12:05:49;;;;;;;12.65;4.38;;;;;;;;;;5034379;28;20496;-66
2023/03/22 12:08:21;;;;;;;10.75;3.15;;;;;;;;;;5033198;28;20500;-67
2023/03/22 12:10:51;;;;;;;10.57;4.07;;;11.30;99.90;;;;;;5035281;28;20047;-66
2023/03/22 12:13:20;;;;;;;9.35;4.50;;;;;;;;;;5026659;28;20071;-66
2023/03/22 12:15:53;;;;;;;9.73;4.32;;;11.10;99.90;;;;;;5030164;28;20054;-67
2023/03/22 12:18:25;;;;;;;9.93;3.55;;;;;;;;;;5024741;28;20785;-66
2023/03/22 12:20:55;;;;;;;9.80;4.00;;;11.40;99.90;;;;;;5023064;28;20037;-67
2023/03/22 12:23:23;;;;;;;9.07;3.42;;;;;;;;;;5032160;28;20124;-67
2023/03/22 12:25:55;;;;;;;12.05;4.22;;;11.40;99.90;;;;;;5028109;28;20399;-67
2023/03/22 12:28:27;;;;;;;9.63;3.72;;;11.30;99.90;;;;;;5013460;28;20054;-66
2023/03/22 12:30:55;;;;;;;8.18;4.45;;;;;;;;;;5030878;28;20053;-66
2023/03/22 12:33:30;;;;;;;10.52;4.10;;;11.20;99.90;;;;;;5032126;28;20110;-66
2023/03/22 12:36:00;;;;;;;7.40;3.92;;;11.20;99.90;;;;;;5034183;28;20763;-66
2023/03/22 12:38:52;;;;;;;9.75;4.25;;;11.20;99.90;;;;;;5025205;28;20092;-67
2023/03/22 12:41:26;;;;;;;8.63;4.55;;;11.30;99.90;;;;;;5029820;28;20052;-66
2023/03/22 12:43:55;;;;;;;13.18;4.45;;;11.20;99.90;;;;;;5022145;28;20403;-67
2023/03/22 12:46:46;;;;;;;6.57;4.88;;;;;;;;;;5030366;28;20706;-67
2023/03/22 12:49:39;;;;;;;13.35;4.47;;;11.30;99.90;;;;;;5045939;28;20048;-66
2023/03/22 12:52:20;;;;;;;10.85;5.20;;;;;;;;;;5036532;28;20037;-66
2023/03/22 12:54:47;;;;;;;11.43;4.70;;;;;;;;;;5034368;28;20037;-66
2023/03/22 12:57:14;;;;;;;8.98;4.63;;;10.90;99.90;;;;;;5038579;28;20049;-66
2023/03/22 12:59:41;;;;;;;7.95;4.95;;;;;;;;;;5028232;28;20053;-66
2023/03/22 13:02:15;;;;;;;12.95;5.43;;;;;;;;;;5029547;28;20056;-66
2023/03/22 13:04:42;;;;;;;8.93;4.88;;;;;;;;;;5031766;28;20045;-66
2023/03/22 13:07:10;;;;;;;8.68;5.07;;;11.10;99.90;;;;;;5028976;28;20112;-67
2023/03/22 13:09:47;;;;;;;10.35;6.00;;;10.80;99.90;;;;;;5024731;28;20041;-67
2023/03/22 13:12:16;;;;;;;12.15;5.82;;;10.90;99.90;;;;;;5034049;28;20036;-66
2023/03/22 13:14:47;;;;;;;13.02;5.05;;;10.80;99.90;;;;;;5026252;28;20041;-66
2023/03/22 13:17:32;;;;;;;11.85;6.70;;;10.90;99.90;;;;;;5037709;28;20521;-66
2023/03/22 13:19:58;;;;;;;8.75;5.50;;;;;;;;;;5026177;28;20094;-66
2023/03/22 13:22:28;;;;;;;12.30;6.13;;;;;;;;;;5027492;28;20041;-66
2023/03/22 13:25:22;;;;;;;9.30;5.97;;;;;;;;;;5036481;28;20029;-66
2023/03/22 13:27:56;;;;;;;12.00;6.00;;;;;;;;;;5044829;28;20060;-67
2023/03/22 13:30:22;;;;;;;15.40;6.00;;;;;;;;;;5031840;28;20053;-67
2023/03/22 13:32:53;;;;;;;14.77;5.95;;;10.90;99.90;;;;;;5042244;28;20041;-66
2023/03/22 13:35:36;;;;;;;15.23;6.28;;;;;;;;;;5030261;28;20103;-67
2023/03/22 13:38:03;;;;;;;9.65;6.28;;;;;;;;;;5040910;28;20052;-66
2023/03/22 13:40:35;;;;;;;11.35;6.63;;;;;;;;;;5030201;28;20087;-66
2023/03/22 13:43:12;;;;;;;15.50;6.95;;;;;;;;;;5034923;28;20407;-67
2023/03/22 13:45:56;;;;;;;15.70;7.22;;;;;;;;;;5028114;28;20061;-66
2023/03/22 13:48:43;;;;;;;11.55;6.93;;;10.50;99.90;;;;;;5042902;28;20100;-67
2023/03/22 13:51:14;;;;;;;14.38;6.90;;;10.70;99.90;;;;;;5030786;28;20120;-66
2023/03/22 13:53:42;;;;;;;15.52;6.82;;;;;;;;;;5037891;28;20040;-66
2023/03/22 13:56:11;;;;;;;12.60;6.72;;;;;;;;;;5030300;28;20064;-66
2023/03/22 13:58:52;;;;;;;12.48;5.95;;;10.70;99.90;;;;;;5033266;28;20120;-66
2023/03/22 14:01:46;;;;;;;11.13;6.20;;;;;;;;;;5043249;28;20050;-66
2023/03/22 14:04:21;;;;;;;10.75;6.97;;;11.00;99.90;;;;;;5032515;28;20056;-66